sensor_id;sensor_type;location;lat;lon;timestamp;temperature;humidity
15072;DHT22;7635;56.696;13.002;2023-02-28T00:02:19;-0.50;99.90
15072;DHT22;7635;56.696;13.002;2023-02-28T00:04:46;-0.50;99.90
15072;DHT22;7635;56.696;13.002;2023-02-28T00:07:27;-0.50;99.90
15072;DHT22;7635;56.696;13.002;2023-02-28T00:09:54;-0.50;99.90
15072;DHT22;7635;56.696;13.002;2023-02-28T00:12:21;-0.50;99.90
15072;DHT22;7635;56.696;13.002;2023-02-28T00:14:48;-0.50;99.90
15072;DHT22;7635;56.696;13.002;2023-02-28T00:17:15;-0.50;99.90
15072;DHT22;7635;56.696;13.002;2023-02-28T00:19:43;-0.50;99.90
15072;DHT22;7635;56.696;13.002;2023-02-28T00:22:10;-0.50;99.90
15072;DHT22;7635;56.696;13.002;2023-02-28T00:24:38;-0.50;99.90
15072;DHT22;7635;56.696;13.002;2023-02-28T00:27:05;-0.60;99.90
15072;DHT22;7635;56.696;13.002;2023-02-28T00:29:31;-0.60;99.90
15072;DHT22;7635;56.696;13.002;2023-02-28T00:31:58;-0.70;99.90
15072;DHT22;7635;56.696;13.002;2023-02-28T00:34:25;-0.70;99.90
15072;DHT22;7635;56.696;13.002;2023-02-28T00:36:51;-0.70;99.90
15072;DHT22;7635;56.696;13.002;2023-02-28T00:39:18;-0.80;99.90
15072;DHT22;7635;56.696;13.002;2023-02-28T00:41:46;-0.80;99.90
15072;DHT22;7635;56.696;13.002;2023-02-28T00:44:13;-0.80;99.90
15072;DHT22;7635;56.696;13.002;2023-02-28T00:46:39;-0.80;99.90
15072;DHT22;7635;56.696;13.002;2023-02-28T00:49:06;-0.90;99.90
15072;DHT22;7635;56.696;13.002;2023-02-28T00:51:33;-0.90;99.90
15072;DHT22;7635;56.696;13.002;2023-02-28T00:53:59;-0.90;99.90
15072;DHT22;7635;56.696;13.002;2023-02-28T00:56:26;-0.90;99.90
15072;DHT22;7635;56.696;13.002;2023-02-28T00:58:54;-0.90;99.90
15072;DHT22;7635;56.696;13.002;2023-02-28T01:01:21;-0.90;99.90
15072;DHT22;7635;56.696;13.002;2023-02-28T01:03:47;-0.90;99.90
15072;DHT22;7635;56.696;13.002;2023-02-28T01:06:14;-0.90;99.90
15072;DHT22;7635;56.696;13.002;2023-02-28T01:08:41;-0.90;99.90
15072;DHT22;7635;56.696;13.002;2023-02-28T01:11:09;-1.00;99.90
15072;DHT22;7635;56.696;13.002;2023-02-28T01:13:36;-1.00;99.90
15072;DHT22;7635;56.696;13.002;2023-02-28T01:16:05;-1.10;99.90
15072;DHT22;7635;56.696;13.002;2023-02-28T01:18:32;-1.10;99.90
15072;DHT22;7635;56.696;13.002;2023-02-28T01:21:03;-1.10;99.90
15072;DHT22;7635;56.696;13.002;2023-02-28T01:23:30;-1.20;99.90
15072;DHT22;7635;56.696;13.002;2023-02-28T01:25:56;-1.20;99.90
15072;DHT22;7635;56.696;13.002;2023-02-28T01:28:23;-1.20;99.90
15072;DHT22;7635;56.696;13.002;2023-02-28T01:30:50;-1.20;99.90
15072;DHT22;7635;56.696;13.002;2023-02-28T01:33:18;-1.20;99.90
15072;DHT22;7635;56.696;13.002;2023-02-28T01:35:45;-1.20;99.90
15072;DHT22;7635;56.696;13.002;2023-02-28T01:38:12;-1.20;99.90
15072;DHT22;7635;56.696;13.002;2023-02-28T01:40:38;-1.30;99.90
15072;DHT22;7635;56.696;13.002;2023-02-28T01:43:12;-1.20;99.90
15072;DHT22;7635;56.696;13.002;2023-02-28T01:45:43;-1.30;99.90
15072;DHT22;7635;56.696;13.002;2023-02-28T01:48:10;-1.20;99.90
15072;DHT22;7635;56.696;13.002;2023-02-28T01:50:43;-1.20;99.90
15072;DHT22;7635;56.696;13.002;2023-02-28T01:53:12;-1.30;99.90
15072;DHT22;7635;56.696;13.002;2023-02-28T01:55:43;-1.20;99.90
15072;DHT22;7635;56.696;13.002;2023-02-28T01:58:11;-1.20;99.90
15072;DHT22;7635;56.696;13.002;2023-02-28T02:00:38;-1.20;99.90
15072;DHT22;7635;56.696;13.002;2023-02-28T02:03:09;-1.20;99.90
15072;DHT22;7635;56.696;13.002;2023-02-28T02:05:39;-1.20;99.90
15072;DHT22;7635;56.696;13.002;2023-02-28T02:08:09;-1.20;99.90
15072;DHT22;7635;56.696;13.002;2023-02-28T02:10:40;-1.20;99.90
15072;DHT22;7635;56.696;13.002;2023-02-28T02:13:30;-1.20;99.90
15072;DHT22;7635;56.696;13.002;2023-02-28T02:16:04;-1.20;99.90
15072;DHT22;7635;56.696;13.002;2023-02-28T02:18:40;-1.20;99.90
15072;DHT22;7635;56.696;13.002;2023-02-28T02:21:35;-1.20;99.90
15072;DHT22;7635;56.696;13.002;2023-02-28T02:24:29;-1.20;99.90
15072;DHT22;7635;56.696;13.002;2023-02-28T02:27:13;-1.20;99.90
15072;DHT22;7635;56.696;13.002;2023-02-28T02:30:05;-1.20;99.90
15072;DHT22;7635;56.696;13.002;2023-02-28T02:35:56;-1.10;99.90
15072;DHT22;7635;56.696;13.002;2023-02-28T02:38:32;-1.10;99.90
15072;DHT22;7635;56.696;13.002;2023-02-28T02:41:08;-1.00;99.90
15072;DHT22;7635;56.696;13.002;2023-02-28T02:43:40;-1.00;99.90
15072;DHT22;7635;56.696;13.002;2023-02-28T02:46:15;-0.90;99.90
15072;DHT22;7635;56.696;13.002;2023-02-28T02:48:43;-0.90;99.90
15072;DHT22;7635;56.696;13.002;2023-02-28T02:51:15;-0.90;99.90
15072;DHT22;7635;56.696;13.002;2023-02-28T02:53:46;-0.90;99.90
15072;DHT22;7635;56.696;13.002;2023-02-28T02:56:17;-0.80;99.90
15072;DHT22;7635;56.696;13.002;2023-02-28T02:58:44;-0.80;99.90
15072;DHT22;7635;56.696;13.002;2023-02-28T03:01:17;-0.80;99.90
15072;DHT22;7635;56.696;13.002;2023-02-28T03:03:53;-0.80;99.90
15072;DHT22;7635;56.696;13.002;2023-02-28T03:06:22;-0.80;99.90
15072;DHT22;7635;56.696;13.002;2023-02-28T03:08:49;-0.90;99.90
15072;DHT22;7635;56.696;13.002;2023-02-28T03:11:15;-0.90;99.90
15072;DHT22;7635;56.696;13.002;2023-02-28T03:13:59;-0.80;99.90
15072;DHT22;7635;56.696;13.002;2023-02-28T03:16:49;-0.80;99.90
15072;DHT22;7635;56.696;13.002;2023-02-28T03:19:47;-0.80;99.90
15072;DHT22;7635;56.696;13.002;2023-02-28T03:22:30;-0.70;99.90
15072;DHT22;7635;56.696;13.002;2023-02-28T03:25:05;-0.70;99.90
15072;DHT22;7635;56.696;13.002;2023-02-28T03:27:39;-0.70;99.90
15072;DHT22;7635;56.696;13.002;2023-02-28T03:30:11;-0.70;99.90
15072;DHT22;7635;56.696;13.002;2023-02-28T03:32:45;-0.60;99.90
15072;DHT22;7635;56.696;13.002;2023-02-28T03:35:20;-0.60;99.90
15072;DHT22;7635;56.696;13.002;2023-02-28T03:37:51;-0.60;99.90
15072;DHT22;7635;56.696;13.002;2023-02-28T03:40:22;-0.50;99.90
15072;DHT22;7635;56.696;13.002;2023-02-28T03:42:54;-0.50;99.90
15072;DHT22;7635;56.696;13.002;2023-02-28T03:45:24;-0.50;99.90
15072;DHT22;7635;56.696;13.002;2023-02-28T03:47:54;-0.50;99.90
15072;DHT22;7635;56.696;13.002;2023-02-28T03:50:25;-0.50;99.90
15072;DHT22;7635;56.696;13.002;2023-02-28T03:52:58;-0.50;99.90
15072;DHT22;7635;56.696;13.002;2023-02-28T03:55:29;-0.50;99.90
15072;DHT22;7635;56.696;13.002;2023-02-28T03:57:59;-0.50;99.90
15072;DHT22;7635;56.696;13.002;2023-02-28T04:00:31;-0.50;99.90
15072;DHT22;7635;56.696;13.002;2023-02-28T04:02:59;-0.40;99.90
15072;DHT22;7635;56.696;13.002;2023-02-28T04:05:26;-0.40;99.90
15072;DHT22;7635;56.696;13.002;2023-02-28T04:08:03;-0.40;99.90
15072;DHT22;7635;56.696;13.002;2023-02-28T04:10:30;-0.40;99.90
15072;DHT22;7635;56.696;13.002;2023-02-28T04:12:57;-0.40;99.90
15072;DHT22;7635;56.696;13.002;2023-02-28T04:15:23;-0.40;99.90
15072;DHT22;7635;56.696;13.002;2023-02-28T04:17:52;-0.30;99.90
15072;DHT22;7635;56.696;13.002;2023-02-28T04:20:19;-0.30;99.90
15072;DHT22;7635;56.696;13.002;2023-02-28T04:22:46;-0.30;99.90
15072;DHT22;7635;56.696;13.002;2023-02-28T04:25:14;-0.30;99.90
15072;DHT22;7635;56.696;13.002;2023-02-28T04:27:40;-0.30;99.90
15072;DHT22;7635;56.696;13.002;2023-02-28T04:30:10;-0.30;99.90
15072;DHT22;7635;56.696;13.002;2023-02-28T04:32:37;-0.30;99.90
15072;DHT22;7635;56.696;13.002;2023-02-28T04:35:05;-0.20;99.90
15072;DHT22;7635;56.696;13.002;2023-02-28T04:37:31;-0.20;99.90
15072;DHT22;7635;56.696;13.002;2023-02-28T04:40:00;-0.20;99.90
15072;DHT22;7635;56.696;13.002;2023-02-28T04:42:28;-0.20;99.90
15072;DHT22;7635;56.696;13.002;2023-02-28T04:45:00;-0.20;99.90
15072;DHT22;7635;56.696;13.002;2023-02-28T04:47:27;-0.20;99.90
15072;DHT22;7635;56.696;13.002;2023-02-28T04:49:54;-0.20;99.90
15072;DHT22;7635;56.696;13.002;2023-02-28T04:52:20;-0.20;99.90
15072;DHT22;7635;56.696;13.002;2023-02-28T04:54:47;-0.20;99.90
15072;DHT22;7635;56.696;13.002;2023-02-28T04:57:14;-0.10;99.90
15072;DHT22;7635;56.696;13.002;2023-02-28T04:59:42;-0.10;99.90
15072;DHT22;7635;56.696;13.002;2023-02-28T05:02:08;-0.10;99.90
15072;DHT22;7635;56.696;13.002;2023-02-28T05:04:35;-0.10;99.90
15072;DHT22;7635;56.696;13.002;2023-02-28T05:07:02;-0.10;99.90
15072;DHT22;7635;56.696;13.002;2023-02-28T05:09:29;-0.10;99.90
15072;DHT22;7635;56.696;13.002;2023-02-28T05:11:56;-0.10;99.90
15072;DHT22;7635;56.696;13.002;2023-02-28T05:14:23;-0.10;99.90
15072;DHT22;7635;56.696;13.002;2023-02-28T05:16:52;-0.10;99.90
15072;DHT22;7635;56.696;13.002;2023-02-28T05:19:18;0.00;99.90
15072;DHT22;7635;56.696;13.002;2023-02-28T05:21:51;0.00;99.90
15072;DHT22;7635;56.696;13.002;2023-02-28T05:24:18;0.00;99.90
15072;DHT22;7635;56.696;13.002;2023-02-28T05:26:48;0.00;99.90
15072;DHT22;7635;56.696;13.002;2023-02-28T05:29:15;0.00;99.90
15072;DHT22;7635;56.696;13.002;2023-02-28T05:31:42;0.00;99.90
15072;DHT22;7635;56.696;13.002;2023-02-28T05:34:10;0.00;99.90
15072;DHT22;7635;56.696;13.002;2023-02-28T05:36:38;0.10;99.90
15072;DHT22;7635;56.696;13.002;2023-02-28T05:39:06;0.10;99.90
15072;DHT22;7635;56.696;13.002;2023-02-28T05:41:38;0.10;99.90
15072;DHT22;7635;56.696;13.002;2023-02-28T05:44:05;0.10;99.90
15072;DHT22;7635;56.696;13.002;2023-02-28T05:46:32;0.10;99.90
15072;DHT22;7635;56.696;13.002;2023-02-28T05:48:58;0.10;99.90
15072;DHT22;7635;56.696;13.002;2023-02-28T05:51:27;0.10;99.90
15072;DHT22;7635;56.696;13.002;2023-02-28T05:53:54;0.20;99.90
15072;DHT22;7635;56.696;13.002;2023-02-28T05:56:22;0.20;99.90
15072;DHT22;7635;56.696;13.002;2023-02-28T05:58:49;0.20;99.90
15072;DHT22;7635;56.696;13.002;2023-02-28T06:01:32;0.20;99.90
15072;DHT22;7635;56.696;13.002;2023-02-28T06:03:59;0.20;99.90
15072;DHT22;7635;56.696;13.002;2023-02-28T06:06:28;0.20;99.90
15072;DHT22;7635;56.696;13.002;2023-02-28T06:08:55;0.20;99.90
15072;DHT22;7635;56.696;13.002;2023-02-28T06:11:22;0.20;99.90
15072;DHT22;7635;56.696;13.002;2023-02-28T06:13:53;0.20;99.90
15072;DHT22;7635;56.696;13.002;2023-02-28T06:16:20;0.20;99.90
15072;DHT22;7635;56.696;13.002;2023-02-28T06:18:46;0.20;99.90
15072;DHT22;7635;56.696;13.002;2023-02-28T06:21:13;0.20;99.90
15072;DHT22;7635;56.696;13.002;2023-02-28T06:23:41;0.20;99.90
15072;DHT22;7635;56.696;13.002;2023-02-28T06:26:08;0.20;99.90
15072;DHT22;7635;56.696;13.002;2023-02-28T06:28:35;0.30;99.90
15072;DHT22;7635;56.696;13.002;2023-02-28T06:31:07;0.30;99.90
15072;DHT22;7635;56.696;13.002;2023-02-28T06:33:34;0.30;99.90
15072;DHT22;7635;56.696;13.002;2023-02-28T06:36:01;0.30;99.90
15072;DHT22;7635;56.696;13.002;2023-02-28T06:38:27;0.40;99.90
15072;DHT22;7635;56.696;13.002;2023-02-28T06:40:56;0.40;99.90
15072;DHT22;7635;56.696;13.002;2023-02-28T06:43:24;0.40;99.90
15072;DHT22;7635;56.696;13.002;2023-02-28T06:45:54;0.40;99.90
15072;DHT22;7635;56.696;13.002;2023-02-28T06:48:21;0.40;99.90
15072;DHT22;7635;56.696;13.002;2023-02-28T06:50:47;0.50;99.90
15072;DHT22;7635;56.696;13.002;2023-02-28T06:53:14;0.50;99.90
15072;DHT22;7635;56.696;13.002;2023-02-28T06:55:41;0.50;99.90
15072;DHT22;7635;56.696;13.002;2023-02-28T06:58:09;0.60;99.90
15072;DHT22;7635;56.696;13.002;2023-02-28T07:00:40;0.60;99.90
15072;DHT22;7635;56.696;13.002;2023-02-28T07:03:07;0.60;99.90
15072;DHT22;7635;56.696;13.002;2023-02-28T07:05:34;0.60;99.90
15072;DHT22;7635;56.696;13.002;2023-02-28T07:08:02;0.60;99.90
15072;DHT22;7635;56.696;13.002;2023-02-28T07:10:29;0.70;99.90
15072;DHT22;7635;56.696;13.002;2023-02-28T07:12:56;0.70;99.90
15072;DHT22;7635;56.696;13.002;2023-02-28T07:15:24;0.70;99.90
15072;DHT22;7635;56.696;13.002;2023-02-28T07:17:51;0.80;99.90
15072;DHT22;7635;56.696;13.002;2023-02-28T07:20:18;0.80;99.90
15072;DHT22;7635;56.696;13.002;2023-02-28T07:22:44;0.80;99.90
15072;DHT22;7635;56.696;13.002;2023-02-28T07:25:11;0.90;99.90
15072;DHT22;7635;56.696;13.002;2023-02-28T07:27:38;0.90;99.90
15072;DHT22;7635;56.696;13.002;2023-02-28T07:30:05;0.90;99.90
15072;DHT22;7635;56.696;13.002;2023-02-28T07:32:33;0.90;99.90
15072;DHT22;7635;56.696;13.002;2023-02-28T07:35:03;1.00;99.90
15072;DHT22;7635;56.696;13.002;2023-02-28T07:37:30;1.00;99.90
15072;DHT22;7635;56.696;13.002;2023-02-28T07:40:02;1.00;99.90
15072;DHT22;7635;56.696;13.002;2023-02-28T07:42:31;1.10;99.90
15072;DHT22;7635;56.696;13.002;2023-02-28T07:44:58;1.10;99.90
15072;DHT22;7635;56.696;13.002;2023-02-28T07:47:25;1.20;99.90
15072;DHT22;7635;56.696;13.002;2023-02-28T07:49:53;1.20;99.90
15072;DHT22;7635;56.696;13.002;2023-02-28T07:52:20;1.30;99.90
15072;DHT22;7635;56.696;13.002;2023-02-28T07:54:46;1.30;99.90
15072;DHT22;7635;56.696;13.002;2023-02-28T07:57:13;1.30;99.90
15072;DHT22;7635;56.696;13.002;2023-02-28T07:59:40;1.40;99.90
15072;DHT22;7635;56.696;13.002;2023-02-28T08:02:06;1.40;99.90
15072;DHT22;7635;56.696;13.002;2023-02-28T08:04:35;1.40;99.90
15072;DHT22;7635;56.696;13.002;2023-02-28T08:07:03;1.50;99.90
15072;DHT22;7635;56.696;13.002;2023-02-28T08:09:29;1.60;99.90
15072;DHT22;7635;56.696;13.002;2023-02-28T08:11:56;1.60;99.90
15072;DHT22;7635;56.696;13.002;2023-02-28T08:14:23;1.70;99.90
15072;DHT22;7635;56.696;13.002;2023-02-28T08:16:49;1.70;99.90
15072;DHT22;7635;56.696;13.002;2023-02-28T08:19:16;1.80;99.90
15072;DHT22;7635;56.696;13.002;2023-02-28T08:21:43;1.80;99.90
15072;DHT22;7635;56.696;13.002;2023-02-28T08:24:11;1.80;99.90
15072;DHT22;7635;56.696;13.002;2023-02-28T08:26:37;1.80;99.90
15072;DHT22;7635;56.696;13.002;2023-02-28T08:29:04;1.80;99.90
15072;DHT22;7635;56.696;13.002;2023-02-28T08:31:31;1.80;99.90
15072;DHT22;7635;56.696;13.002;2023-02-28T08:33:57;1.90;99.90
15072;DHT22;7635;56.696;13.002;2023-02-28T08:36:25;1.90;99.90
15072;DHT22;7635;56.696;13.002;2023-02-28T08:38:53;2.00;99.90
15072;DHT22;7635;56.696;13.002;2023-02-28T08:41:21;2.00;99.90
15072;DHT22;7635;56.696;13.002;2023-02-28T08:43:48;2.00;99.90
15072;DHT22;7635;56.696;13.002;2023-02-28T08:46:16;2.10;99.90
15072;DHT22;7635;56.696;13.002;2023-02-28T08:48:43;2.10;99.90
15072;DHT22;7635;56.696;13.002;2023-02-28T08:51:12;2.20;99.90
15072;DHT22;7635;56.696;13.002;2023-02-28T08:53:39;2.20;99.90
15072;DHT22;7635;56.696;13.002;2023-02-28T08:56:08;2.30;99.90
15072;DHT22;7635;56.696;13.002;2023-02-28T08:58:36;2.30;99.90
15072;DHT22;7635;56.696;13.002;2023-02-28T09:01:08;2.40;99.90
15072;DHT22;7635;56.696;13.002;2023-02-28T09:03:36;2.40;99.90
15072;DHT22;7635;56.696;13.002;2023-02-28T09:06:03;2.40;99.90
15072;DHT22;7635;56.696;13.002;2023-02-28T09:08:30;2.40;99.90
15072;DHT22;7635;56.696;13.002;2023-02-28T09:10:57;2.40;99.90
15072;DHT22;7635;56.696;13.002;2023-02-28T09:13:25;2.40;99.90
15072;DHT22;7635;56.696;13.002;2023-02-28T09:15:53;2.40;99.90
15072;DHT22;7635;56.696;13.002;2023-02-28T09:18:20;2.40;99.90
15072;DHT22;7635;56.696;13.002;2023-02-28T09:20:47;2.50;99.90
15072;DHT22;7635;56.696;13.002;2023-02-28T09:23:13;2.50;99.90
15072;DHT22;7635;56.696;13.002;2023-02-28T09:25:45;2.60;99.90
15072;DHT22;7635;56.696;13.002;2023-02-28T09:28:12;2.70;99.90
15072;DHT22;7635;56.696;13.002;2023-02-28T09:30:41;2.70;99.90
15072;DHT22;7635;56.696;13.002;2023-02-28T09:33:09;2.70;99.90
15072;DHT22;7635;56.696;13.002;2023-02-28T09:35:36;2.80;99.90
15072;DHT22;7635;56.696;13.002;2023-02-28T09:38:03;2.80;99.90
15072;DHT22;7635;56.696;13.002;2023-02-28T09:40:31;2.90;99.90
15072;DHT22;7635;56.696;13.002;2023-02-28T09:42:59;2.90;99.90
15072;DHT22;7635;56.696;13.002;2023-02-28T09:45:29;3.00;99.90
15072;DHT22;7635;56.696;13.002;2023-02-28T09:48:03;3.00;99.90
15072;DHT22;7635;56.696;13.002;2023-02-28T09:50:34;3.00;99.90
15072;DHT22;7635;56.696;13.002;2023-02-28T09:53:06;3.00;99.90
15072;DHT22;7635;56.696;13.002;2023-02-28T09:55:39;3.00;99.90
15072;DHT22;7635;56.696;13.002;2023-02-28T09:58:18;3.10;99.90
15072;DHT22;7635;56.696;13.002;2023-02-28T10:00:54;3.20;99.90
15072;DHT22;7635;56.696;13.002;2023-02-28T10:03:29;3.30;99.90
15072;DHT22;7635;56.696;13.002;2023-02-28T10:06:03;3.30;99.90
15072;DHT22;7635;56.696;13.002;2023-02-28T10:08:37;3.40;99.90
15072;DHT22;7635;56.696;13.002;2023-02-28T10:11:09;3.40;99.90
15072;DHT22;7635;56.696;13.002;2023-02-28T10:13:49;3.50;99.90
15072;DHT22;7635;56.696;13.002;2023-02-28T10:16:22;3.50;99.90
15072;DHT22;7635;56.696;13.002;2023-02-28T10:18:52;3.50;99.90
15072;DHT22;7635;56.696;13.002;2023-02-28T10:21:26;3.60;99.90
15072;DHT22;7635;56.696;13.002;2023-02-28T10:24:03;3.70;99.90
15072;DHT22;7635;56.696;13.002;2023-02-28T10:26:31;3.70;99.90
15072;DHT22;7635;56.696;13.002;2023-02-28T10:28:58;3.80;99.90
15072;DHT22;7635;56.696;13.002;2023-02-28T10:31:25;3.90;99.90
15072;DHT22;7635;56.696;13.002;2023-02-28T10:33:52;4.00;99.90
15072;DHT22;7635;56.696;13.002;2023-02-28T10:36:21;4.10;99.90
15072;DHT22;7635;56.696;13.002;2023-02-28T10:38:49;4.00;99.90
15072;DHT22;7635;56.696;13.002;2023-02-28T10:41:27;4.00;99.90
15072;DHT22;7635;56.696;13.002;2023-02-28T10:44:13;4.00;99.90
15072;DHT22;7635;56.696;13.002;2023-02-28T10:46:40;4.00;99.90
15072;DHT22;7635;56.696;13.002;2023-02-28T10:49:14;4.00;99.90
15072;DHT22;7635;56.696;13.002;2023-02-28T10:51:41;4.00;99.90
15072;DHT22;7635;56.696;13.002;2023-02-28T10:54:18;4.00;99.90
15072;DHT22;7635;56.696;13.002;2023-02-28T10:56:45;4.10;99.90
15072;DHT22;7635;56.696;13.002;2023-02-28T10:59:26;4.10;99.90
15072;DHT22;7635;56.696;13.002;2023-02-28T11:01:53;4.20;99.90
15072;DHT22;7635;56.696;13.002;2023-02-28T11:04:32;4.20;99.90
15072;DHT22;7635;56.696;13.002;2023-02-28T11:07:02;4.20;99.90
15072;DHT22;7635;56.696;13.002;2023-02-28T11:09:34;4.20;99.90
15072;DHT22;7635;56.696;13.002;2023-02-28T11:12:02;4.10;99.90
15072;DHT22;7635;56.696;13.002;2023-02-28T11:14:32;4.20;99.90
15072;DHT22;7635;56.696;13.002;2023-02-28T11:17:11;4.30;99.90
15072;DHT22;7635;56.696;13.002;2023-02-28T11:19:45;4.40;99.90
15072;DHT22;7635;56.696;13.002;2023-02-28T11:22:17;4.40;99.90
15072;DHT22;7635;56.696;13.002;2023-02-28T11:24:48;4.60;99.90
15072;DHT22;7635;56.696;13.002;2023-02-28T11:27:49;4.70;99.90
15072;DHT22;7635;56.696;13.002;2023-02-28T11:30:32;4.70;99.90
15072;DHT22;7635;56.696;13.002;2023-02-28T11:33:00;4.70;99.90
15072;DHT22;7635;56.696;13.002;2023-02-28T11:35:30;4.70;99.90
15072;DHT22;7635;56.696;13.002;2023-02-28T11:38:00;4.60;99.90
15072;DHT22;7635;56.696;13.002;2023-02-28T11:40:36;4.70;99.90
15072;DHT22;7635;56.696;13.002;2023-02-28T11:43:13;4.70;99.90
15072;DHT22;7635;56.696;13.002;2023-02-28T11:46:00;4.80;99.90
15072;DHT22;7635;56.696;13.002;2023-02-28T11:48:34;4.80;99.90
15072;DHT22;7635;56.696;13.002;2023-02-28T11:51:12;4.70;99.90
15072;DHT22;7635;56.696;13.002;2023-02-28T11:54:08;4.70;99.90
15072;DHT22;7635;56.696;13.002;2023-02-28T11:56:47;5.00;99.90
15072;DHT22;7635;56.696;13.002;2023-02-28T12:02:24;5.20;99.90
15072;DHT22;7635;56.696;13.002;2023-02-28T12:05:03;5.40;99.90
15072;DHT22;7635;56.696;13.002;2023-02-28T12:07:36;5.60;99.90
15072;DHT22;7635;56.696;13.002;2023-02-28T12:10:14;5.80;99.90
15072;DHT22;7635;56.696;13.002;2023-02-28T12:12:53;6.00;99.90
15072;DHT22;7635;56.696;13.002;2023-02-28T12:15:43;6.30;99.90
15072;DHT22;7635;56.696;13.002;2023-02-28T12:18:35;6.60;99.90
15072;DHT22;7635;56.696;13.002;2023-02-28T12:21:10;6.90;99.90
15072;DHT22;7635;56.696;13.002;2023-02-28T12:24:12;7.20;99.90
15072;DHT22;7635;56.696;13.002;2023-02-28T12:26:45;7.50;99.90
15072;DHT22;7635;56.696;13.002;2023-02-28T12:29:17;7.70;99.90
15072;DHT22;7635;56.696;13.002;2023-02-28T12:31:49;7.90;99.90
15072;DHT22;7635;56.696;13.002;2023-02-28T12:34:19;8.10;99.90
15072;DHT22;7635;56.696;13.002;2023-02-28T12:36:47;8.20;99.90
15072;DHT22;7635;56.696;13.002;2023-02-28T12:39:18;8.30;99.90
15072;DHT22;7635;56.696;13.002;2023-02-28T12:41:48;8.30;99.90
15072;DHT22;7635;56.696;13.002;2023-02-28T12:44:19;8.30;99.90
15072;DHT22;7635;56.696;13.002;2023-02-28T12:46:49;8.20;99.90
15072;DHT22;7635;56.696;13.002;2023-02-28T12:49:21;8.10;99.90
15072;DHT22;7635;56.696;13.002;2023-02-28T12:51:50;8.00;99.90
15072;DHT22;7635;56.696;13.002;2023-02-28T12:54:22;7.90;99.90
15072;DHT22;7635;56.696;13.002;2023-02-28T12:56:56;7.90;99.90
15072;DHT22;7635;56.696;13.002;2023-02-28T12:59:32;7.80;99.90
15072;DHT22;7635;56.696;13.002;2023-02-28T13:05:24;7.60;99.90
15072;DHT22;7635;56.696;13.002;2023-02-28T13:08:08;7.60;99.90
15072;DHT22;7635;56.696;13.002;2023-02-28T13:10:42;7.60;99.90
15072;DHT22;7635;56.696;13.002;2023-02-28T13:13:15;7.60;99.90
15072;DHT22;7635;56.696;13.002;2023-02-28T13:15:59;7.50;99.90
15072;DHT22;7635;56.696;13.002;2023-02-28T13:18:35;7.50;99.90
15072;DHT22;7635;56.696;13.002;2023-02-28T13:21:03;7.50;99.90
15072;DHT22;7635;56.696;13.002;2023-02-28T13:23:58;7.50;99.90
15072;DHT22;7635;56.696;13.002;2023-02-28T13:29:34;7.50;99.90
15072;DHT22;7635;56.696;13.002;2023-02-28T13:32:30;7.50;99.90
15072;DHT22;7635;56.696;13.002;2023-02-28T13:38:24;7.40;99.90
15072;DHT22;7635;56.696;13.002;2023-02-28T13:44:04;7.40;99.90
15072;DHT22;7635;56.696;13.002;2023-02-28T13:46:32;7.40;99.90
15072;DHT22;7635;56.696;13.002;2023-02-28T13:49:23;7.40;99.90
15072;DHT22;7635;56.696;13.002;2023-02-28T13:51:52;7.40;99.90
15072;DHT22;7635;56.696;13.002;2023-02-28T13:54:37;7.40;99.90
15072;DHT22;7635;56.696;13.002;2023-02-28T13:57:21;7.40;99.90
15072;DHT22;7635;56.696;13.002;2023-02-28T13:59:56;7.40;99.90
15072;DHT22;7635;56.696;13.002;2023-02-28T14:02:44;7.40;99.90
15072;DHT22;7635;56.696;13.002;2023-02-28T14:05:17;7.30;99.90
15072;DHT22;7635;56.696;13.002;2023-02-28T14:07:48;7.30;99.90
15072;DHT22;7635;56.696;13.002;2023-02-28T14:10:25;7.10;99.90
15072;DHT22;7635;56.696;13.002;2023-02-28T14:12:55;7.00;99.90
15072;DHT22;7635;56.696;13.002;2023-02-28T14:15:31;6.80;99.90
15072;DHT22;7635;56.696;13.002;2023-02-28T14:18:03;6.70;99.90
15072;DHT22;7635;56.696;13.002;2023-02-28T14:20:33;6.60;99.90
15072;DHT22;7635;56.696;13.002;2023-02-28T14:23:06;6.50;99.90
15072;DHT22;7635;56.696;13.002;2023-02-28T14:25:39;6.40;99.90
15072;DHT22;7635;56.696;13.002;2023-02-28T14:28:16;6.30;99.90
15072;DHT22;7635;56.696;13.002;2023-02-28T14:31:00;6.30;99.90
15072;DHT22;7635;56.696;13.002;2023-02-28T14:33:43;6.20;99.90
15072;DHT22;7635;56.696;13.002;2023-02-28T14:36:20;6.10;99.90
15072;DHT22;7635;56.696;13.002;2023-02-28T14:38:51;6.10;99.90
15072;DHT22;7635;56.696;13.002;2023-02-28T14:41:22;6.00;99.90
15072;DHT22;7635;56.696;13.002;2023-02-28T14:43:55;5.90;99.90
15072;DHT22;7635;56.696;13.002;2023-02-28T14:46:24;5.90;99.90
15072;DHT22;7635;56.696;13.002;2023-02-28T14:48:52;5.80;99.90
15072;DHT22;7635;56.696;13.002;2023-02-28T14:51:21;5.80;99.90
15072;DHT22;7635;56.696;13.002;2023-02-28T14:53:51;5.80;99.90
15072;DHT22;7635;56.696;13.002;2023-02-28T14:56:24;5.70;99.90
15072;DHT22;7635;56.696;13.002;2023-02-28T14:58:53;5.70;99.90
15072;DHT22;7635;56.696;13.002;2023-02-28T15:01:22;5.60;99.90
15072;DHT22;7635;56.696;13.002;2023-02-28T15:03:57;5.60;99.90
15072;DHT22;7635;56.696;13.002;2023-02-28T15:06:26;5.50;99.90
15072;DHT22;7635;56.696;13.002;2023-02-28T15:09:07;5.50;99.90
15072;DHT22;7635;56.696;13.002;2023-02-28T15:11:35;5.40;99.90
15072;DHT22;7635;56.696;13.002;2023-02-28T15:14:03;5.40;99.90
15072;DHT22;7635;56.696;13.002;2023-02-28T15:16:32;5.30;99.90
15072;DHT22;7635;56.696;13.002;2023-02-28T15:19:02;5.30;99.90
15072;DHT22;7635;56.696;13.002;2023-02-28T15:21:34;5.30;99.90
15072;DHT22;7635;56.696;13.002;2023-02-28T15:24:05;5.20;99.90
15072;DHT22;7635;56.696;13.002;2023-02-28T15:26:34;5.20;99.90
15072;DHT22;7635;56.696;13.002;2023-02-28T15:29:05;5.20;99.90
15072;DHT22;7635;56.696;13.002;2023-02-28T15:31:35;5.20;99.90
15072;DHT22;7635;56.696;13.002;2023-02-28T15:34:04;5.20;99.90
15072;DHT22;7635;56.696;13.002;2023-02-28T15:36:33;5.10;99.90
15072;DHT22;7635;56.696;13.002;2023-02-28T15:39:03;5.10;99.90
15072;DHT22;7635;56.696;13.002;2023-02-28T15:41:35;5.00;99.90
15072;DHT22;7635;56.696;13.002;2023-02-28T15:44:25;5.00;99.90
15072;DHT22;7635;56.696;13.002;2023-02-28T15:46:58;5.00;99.90
15072;DHT22;7635;56.696;13.002;2023-02-28T15:49:27;4.90;99.90
15072;DHT22;7635;56.696;13.002;2023-02-28T15:51:58;4.80;99.90
15072;DHT22;7635;56.696;13.002;2023-02-28T15:54:29;4.80;99.90
15072;DHT22;7635;56.696;13.002;2023-02-28T15:56:57;4.70;99.90
15072;DHT22;7635;56.696;13.002;2023-02-28T15:59:29;4.70;99.90
15072;DHT22;7635;56.696;13.002;2023-02-28T16:02:11;4.70;99.90
15072;DHT22;7635;56.696;13.002;2023-02-28T16:04:58;4.60;99.90
15072;DHT22;7635;56.696;13.002;2023-02-28T16:07:28;4.60;99.90
15072;DHT22;7635;56.696;13.002;2023-02-28T16:09:55;4.50;99.90
15072;DHT22;7635;56.696;13.002;2023-02-28T16:12:27;4.50;99.90
15072;DHT22;7635;56.696;13.002;2023-02-28T16:14:55;4.40;99.90
15072;DHT22;7635;56.696;13.002;2023-02-28T16:17:25;4.40;99.90
15072;DHT22;7635;56.696;13.002;2023-02-28T16:19:53;4.30;99.90
15072;DHT22;7635;56.696;13.002;2023-02-28T16:22:20;4.30;99.90
15072;DHT22;7635;56.696;13.002;2023-02-28T16:24:48;4.20;99.90